sensor_id;sensor_type;location;lat;lon;timestamp;pressure;altitude;pressure_sealevel;temperature;humidity
11212;BME280;5663;50.864;12.096;2023-05-10T01:34:54;98679.03;;;10.21;64.64
11212;BME280;5663;50.864;12.096;2023-05-10T01:37:36;98678.19;;;10.20;64.66
11212;BME280;5663;50.864;12.096;2023-05-10T01:40:14;98672.00;;;10.23;64.90
11212;BME280;5663;50.864;12.096;2023-05-10T01:42:49;98675.28;;;10.26;64.94
11212;BME280;5663;50.864;12.096;2023-05-10T01:45:27;98675.00;;;10.31;65.00
11212;BME280;5663;50.864;12.096;2023-05-10T01:48:06;98675.72;;;10.33;65.05
11212;BME280;5663;50.864;12.096;2023-05-10T01:50:39;98668.03;;;10.31;65.21
11212;BME280;5663;50.864;12.096;2023-05-10T01:53:11;98585.97;;;9.84;65.05
11212;BME280;5663;50.864;12.096;2023-05-10T01:55:46;98615.59;;;10.10;65.18
11212;BME280;5663;50.864;12.096;2023-05-10T01:58:21;98667.28;;;10.44;65.75
11212;BME280;5663;50.864;12.096;2023-05-10T02:00:52;98643.97;;;10.28;65.55
11212;BME280;5663;50.864;12.096;2023-05-10T02:03:24;98669.50;;;10.50;65.68
11212;BME280;5663;50.864;12.096;2023-05-10T02:06:01;98644.28;;;10.38;65.71
11212;BME280;5663;50.864;12.096;2023-05-10T02:08:33;98657.22;;;10.52;65.80
11212;BME280;5663;50.864;12.096;2023-05-10T02:11:03;98665.38;;;10.60;66.07
11212;BME280;5663;50.864;12.096;2023-05-10T02:13:34;98659.06;;;10.64;66.13
11212;BME280;5663;50.864;12.096;2023-05-10T02:16:04;98648.22;;;10.57;66.08
11212;BME280;5663;50.864;12.096;2023-05-10T02:18:34;98671.50;;;10.73;66.23
11212;BME280;5663;50.864;12.096;2023-05-10T02:21:08;98662.59;;;10.77;66.15
11212;BME280;5663;50.864;12.096;2023-05-10T02:23:39;98667.56;;;10.80;66.05
11212;BME280;5663;50.864;12.096;2023-05-10T02:26:08;98676.66;;;10.88;66.01
11212;BME280;5663;50.864;12.096;2023-05-10T02:28:36;98641.97;;;10.74;65.98
11212;BME280;5663;50.864;12.096;2023-05-10T02:31:07;98666.78;;;10.93;66.19
11212;BME280;5663;50.864;12.096;2023-05-10T02:33:40;98665.88;;;10.94;66.33
11212;BME280;5663;50.864;12.096;2023-05-10T03:35:13;98629.88;;;11.53;65.99
11212;BME280;5663;50.864;12.096;2023-05-10T03:37:41;98663.78;;;11.78;65.64
11212;BME280;5663;50.864;12.096;2023-05-10T03:40:09;98660.91;;;11.83;65.66
11212;BME280;5663;50.864;12.096;2023-05-10T03:42:37;98663.09;;;11.89;65.82
11212;BME280;5663;50.864;12.096;2023-05-10T03:45:08;98660.38;;;11.91;65.68
11212;BME280;5663;50.864;12.096;2023-05-10T03:47:36;98656.81;;;12.04;65.73
11212;BME280;5663;50.864;12.096;2023-05-10T03:50:07;98648.19;;;12.04;65.65
11212;BME280;5663;50.864;12.096;2023-05-10T03:52:38;98668.94;;;12.18;65.71
11212;BME280;5663;50.864;12.096;2023-05-10T03:55:07;98661.63;;;12.23;65.85
11212;BME280;5663;50.864;12.096;2023-05-10T03:57:38;98653.47;;;12.28;65.85
11212;BME280;5663;50.864;12.096;2023-05-10T04:00:09;98582.34;;;11.89;65.66
11212;BME280;5663;50.864;12.096;2023-05-10T04:02:39;98653.56;;;12.39;65.46
11212;BME280;5663;50.864;12.096;2023-05-10T04:05:09;98660.53;;;12.51;65.51
11212;BME280;5663;50.864;12.096;2023-05-10T04:07:40;98653.81;;;12.60;65.51
11212;BME280;5663;50.864;12.096;2023-05-10T04:10:12;98657.59;;;12.69;65.46
11212;BME280;5663;50.864;12.096;2023-05-10T04:12:40;98652.75;;;12.75;65.39
11212;BME280;5663;50.864;12.096;2023-05-10T04:15:11;98654.59;;;12.86;64.80
11212;BME280;5663;50.864;12.096;2023-05-10T04:17:40;98654.75;;;12.96;64.76
11212;BME280;5663;50.864;12.096;2023-05-10T04:20:11;98653.25;;;13.04;64.66
11212;BME280;5663;50.864;12.096;2023-05-10T04:22:41;98639.38;;;13.04;64.24
11212;BME280;5663;50.864;12.096;2023-05-10T04:25:11;98651.31;;;13.19;64.35
11212;BME280;5663;50.864;12.096;2023-05-10T04:27:40;98655.28;;;13.25;64.38
11212;BME280;5663;50.864;12.096;2023-05-10T04:30:13;98661.63;;;13.34;64.32
11212;BME280;5663;50.864;12.096;2023-05-10T04:32:43;98667.31;;;13.39;64.36
11212;BME280;5663;50.864;12.096;2023-05-10T04:35:14;98654.75;;;13.44;64.36
11212;BME280;5663;50.864;12.096;2023-05-10T04:37:45;98669.97;;;13.50;63.94
11212;BME280;5663;50.864;12.096;2023-05-10T04:40:21;98668.69;;;13.55;63.78
11212;BME280;5663;50.864;12.096;2023-05-10T04:42:50;98670.09;;;13.60;63.89
11212;BME280;5663;50.864;12.096;2023-05-10T04:45:21;98666.94;;;13.67;63.64
11212;BME280;5663;50.864;12.096;2023-05-10T04:47:49;98665.53;;;13.74;63.77
11212;BME280;5663;50.864;12.096;2023-05-10T04:50:19;98667.09;;;13.77;63.47
11212;BME280;5663;50.864;12.096;2023-05-10T04:52:49;98668.66;;;13.91;63.53
11212;BME280;5663;50.864;12.096;2023-05-10T04:55:19;98662.97;;;13.97;63.40
11212;BME280;5663;50.864;12.096;2023-05-10T04:57:50;98672.47;;;14.09;63.61
11212;BME280;5663;50.864;12.096;2023-05-10T05:00:25;98669.88;;;14.20;62.81
11212;BME280;5663;50.864;12.096;2023-05-10T05:02:56;98669.38;;;14.26;62.69
11212;BME280;5663;50.864;12.096;2023-05-10T05:05:26;98666.31;;;14.33;62.29
11212;BME280;5663;50.864;12.096;2023-05-10T05:07:57;98627.09;;;14.21;61.63
11212;BME280;5663;50.864;12.096;2023-05-10T05:10:33;98666.53;;;14.52;60.71
11212;BME280;5663;50.864;12.096;2023-05-10T05:13:08;98661.81;;;14.57;61.04
11212;BME280;5663;50.864;12.096;2023-05-10T05:15:53;98658.91;;;14.71;61.08
11212;BME280;5663;50.864;12.096;2023-05-10T05:18:22;98669.75;;;14.78;60.86
11212;BME280;5663;50.864;12.096;2023-05-10T05:20:52;98668.69;;;14.81;60.58
11212;BME280;5663;50.864;12.096;2023-05-10T05:23:23;98664.03;;;14.84;60.47
11212;BME280;5663;50.864;12.096;2023-05-10T05:25:52;98670.31;;;14.93;59.14
11212;BME280;5663;50.864;12.096;2023-05-10T05:28:21;98667.19;;;14.99;59.01
11212;BME280;5663;50.864;12.096;2023-05-10T05:30:48;98669.56;;;15.02;58.35
11212;BME280;5663;50.864;12.096;2023-05-10T05:33:17;98670.97;;;15.06;57.50
11212;BME280;5663;50.864;12.096;2023-05-10T05:35:47;98666.47;;;15.08;57.73
11212;BME280;5663;50.864;12.096;2023-05-10T05:38:17;98673.44;;;15.19;57.82
11212;BME280;5663;50.864;12.096;2023-05-10T05:40:46;98682.31;;;15.27;56.76
11212;BME280;5663;50.864;12.096;2023-05-10T05:43:16;98673.97;;;15.34;56.85
11212;BME280;5663;50.864;12.096;2023-05-10T05:45:45;98668.13;;;15.41;57.16
11212;BME280;5663;50.864;12.096;2023-05-10T05:48:14;98678.94;;;15.48;57.50
11212;BME280;5663;50.864;12.096;2023-05-10T05:50:42;98658.72;;;15.39;57.47
11212;BME280;5663;50.864;12.096;2023-05-10T05:53:12;98682.31;;;15.60;57.34
11212;BME280;5663;50.864;12.096;2023-05-10T05:55:54;98683.16;;;15.60;57.50
11212;BME280;5663;50.864;12.096;2023-05-10T05:58:24;98700.06;;;15.67;57.74
11212;BME280;5663;50.864;12.096;2023-05-10T06:00:55;98691.25;;;15.68;57.47
11212;BME280;5663;50.864;12.096;2023-05-10T06:03:25;98699.44;;;15.64;57.58
11212;BME280;5663;50.864;12.096;2023-05-10T06:05:59;98698.41;;;15.66;58.12
11212;BME280;5663;50.864;12.096;2023-05-10T06:08:32;98703.63;;;15.66;58.44
11212;BME280;5663;50.864;12.096;2023-05-10T06:11:02;98710.53;;;15.67;58.38
11212;BME280;5663;50.864;12.096;2023-05-10T06:13:34;98714.84;;;15.68;58.65
11212;BME280;5663;50.864;12.096;2023-05-10T06:16:05;98712.22;;;15.68;58.38
11212;BME280;5663;50.864;12.096;2023-05-10T06:18:34;98720.34;;;15.65;58.44
11212;BME280;5663;50.864;12.096;2023-05-10T06:21:06;98729.03;;;15.66;59.04
11212;BME280;5663;50.864;12.096;2023-05-10T06:23:38;98716.28;;;15.61;59.50
11212;BME280;5663;50.864;12.096;2023-05-10T06:26:09;98728.19;;;15.65;59.09
11212;BME280;5663;50.864;12.096;2023-05-10T06:28:39;98730.06;;;15.63;59.15
11212;BME280;5663;50.864;12.096;2023-05-10T06:31:15;98728.66;;;15.59;59.76
11212;BME280;5663;50.864;12.096;2023-05-10T06:33:44;98734.88;;;15.58;60.50
11212;BME280;5663;50.864;12.096;2023-05-10T06:36:17;98713.34;;;15.43;61.00
11212;BME280;5663;50.864;12.096;2023-05-10T06:38:46;98733.91;;;15.59;60.49
11212;BME280;5663;50.864;12.096;2023-05-10T06:41:18;98739.41;;;15.56;60.28
11212;BME280;5663;50.864;12.096;2023-05-10T06:43:47;98736.59;;;15.48;59.74
11212;BME280;5663;50.864;12.096;2023-05-10T06:46:16;98742.97;;;15.55;60.70
11212;BME280;5663;50.864;12.096;2023-05-10T06:48:50;98744.38;;;15.59;61.17
11212;BME280;5663;50.864;12.096;2023-05-10T06:51:19;98748.94;;;15.57;60.26
11212;BME280;5663;50.864;12.096;2023-05-10T06:53:48;98756.78;;;15.57;61.01
11212;BME280;5663;50.864;12.096;2023-05-10T06:56:20;98753.22;;;15.58;61.66
11212;BME280;5663;50.864;12.096;2023-05-10T06:58:49;98759.28;;;15.59;61.71
11212;BME280;5663;50.864;12.096;2023-05-10T07:01:25;98750.84;;;15.55;62.25
11212;BME280;5663;50.864;12.096;2023-05-10T07:03:56;98761.06;;;15.58;62.68
11212;BME280;5663;50.864;12.096;2023-05-10T07:06:26;98758.44;;;15.58;63.14
11212;BME280;5663;50.864;12.096;2023-05-10T07:09:00;98753.72;;;15.52;63.11
11212;BME280;5663;50.864;12.096;2023-05-10T07:11:32;98762.88;;;15.58;63.18
11212;BME280;5663;50.864;12.096;2023-05-10T07:14:01;98767.38;;;15.56;62.78
11212;BME280;5663;50.864;12.096;2023-05-10T07:16:30;98765.63;;;15.56;62.97
11212;BME280;5663;50.864;12.096;2023-05-10T07:18:59;98768.94;;;15.58;63.07
11212;BME280;5663;50.864;12.096;2023-05-10T07:21:29;98772.53;;;15.57;62.80
11212;BME280;5663;50.864;12.096;2023-05-10T07:23:59;98773.94;;;15.61;63.24
11212;BME280;5663;50.864;12.096;2023-05-10T07:26:33;98776.56;;;15.61;62.94
11212;BME280;5663;50.864;12.096;2023-05-10T07:29:03;98772.28;;;15.60;62.92
11212;BME280;5663;50.864;12.096;2023-05-10T07:31:34;98775.59;;;15.62;62.88
11212;BME280;5663;50.864;12.096;2023-05-10T07:34:09;98772.00;;;15.63;63.19
11212;BME280;5663;50.864;12.096;2023-05-10T07:36:37;98764.66;;;15.68;63.47
11212;BME280;5663;50.864;12.096;2023-05-10T07:39:08;98785.75;;;15.88;63.65
11212;BME280;5663;50.864;12.096;2023-05-10T07:41:39;98793.84;;;15.96;64.09
11212;BME280;5663;50.864;12.096;2023-05-10T07:44:07;98804.41;;;16.06;64.13
11212;BME280;5663;50.864;12.096;2023-05-10T07:46:38;98797.81;;;16.11;64.36
11212;BME280;5663;50.864;12.096;2023-05-10T07:49:08;98791.25;;;16.17;64.49
11212;BME280;5663;50.864;12.096;2023-05-10T07:51:36;98796.78;;;16.23;64.72
11212;BME280;5663;50.864;12.096;2023-05-10T07:54:05;98792.41;;;16.24;64.64
11212;BME280;5663;50.864;12.096;2023-05-10T07:56:36;98797.25;;;16.29;64.75
11212;BME280;5663;50.864;12.096;2023-05-10T07:59:07;98802.94;;;16.34;65.14
11212;BME280;5663;50.864;12.096;2023-05-10T08:01:36;98803.13;;;16.42;65.51
11212;BME280;5663;50.864;12.096;2023-05-10T08:04:07;98816.50;;;16.39;65.31
11212;BME280;5663;50.864;12.096;2023-05-10T08:06:39;98807.22;;;16.35;65.04
11212;BME280;5663;50.864;12.096;2023-05-10T08:09:09;98810.81;;;16.34;65.03
11212;BME280;5663;50.864;12.096;2023-05-10T08:11:38;98806.28;;;16.36;65.45
11212;BME280;5663;50.864;12.096;2023-05-10T08:14:08;98820.44;;;16.44;65.55
11212;BME280;5663;50.864;12.096;2023-05-10T08:16:37;98825.97;;;16.51;65.48
11212;BME280;5663;50.864;12.096;2023-05-10T08:19:10;98823.81;;;16.56;65.60
11212;BME280;5663;50.864;12.096;2023-05-10T08:21:40;98820.91;;;16.59;65.34
11212;BME280;5663;50.864;12.096;2023-05-10T08:24:11;98821.88;;;16.58;65.18
11212;BME280;5663;50.864;12.096;2023-05-10T08:26:41;98828.13;;;16.67;65.25
11212;BME280;5663;50.864;12.096;2023-05-10T08:29:12;98833.00;;;16.71;65.51
11212;BME280;5663;50.864;12.096;2023-05-10T08:31:43;98830.59;;;16.80;65.79
11212;BME280;5663;50.864;12.096;2023-05-10T08:34:12;98828.97;;;16.88;65.30
11212;BME280;5663;50.864;12.096;2023-05-10T09:36:37;98881.06;;;17.54;65.86
11212;BME280;5663;50.864;12.096;2023-05-10T09:39:17;98882.03;;;17.53;65.93
11212;BME280;5663;50.864;12.096;2023-05-10T09:41:47;98884.69;;;17.53;66.42
11212;BME280;5663;50.864;12.096;2023-05-10T09:44:17;98877.34;;;17.57;66.89
11212;BME280;5663;50.864;12.096;2023-05-10T09:46:50;98884.84;;;17.61;66.76
11212;BME280;5663;50.864;12.096;2023-05-10T09:49:21;98888.13;;;17.63;66.61
11212;BME280;5663;50.864;12.096;2023-05-10T09:52:03;98888.72;;;17.67;66.74
11212;BME280;5663;50.864;12.096;2023-05-10T09:54:35;98886.63;;;17.70;66.35
11212;BME280;5663;50.864;12.096;2023-05-10T09:57:05;98866.44;;;17.61;66.57
11212;BME280;5663;50.864;12.096;2023-05-10T09:59:33;98894.59;;;17.80;66.94
11212;BME280;5663;50.864;12.096;2023-05-10T10:02:02;98900.44;;;17.84;66.66
11212;BME280;5663;50.864;12.096;2023-05-10T10:04:39;98894.03;;;17.86;66.61
11212;BME280;5663;50.864;12.096;2023-05-10T10:07:10;98882.97;;;17.83;66.71
11212;BME280;5663;50.864;12.096;2023-05-10T10:09:40;98883.81;;;17.93;66.15
11212;BME280;5663;50.864;12.096;2023-05-10T10:12:07;98887.56;;;18.00;66.71
11212;BME280;5663;50.864;12.096;2023-05-10T10:14:36;98883.41;;;17.97;66.57
11212;BME280;5663;50.864;12.096;2023-05-10T10:17:05;98886.03;;;18.07;66.72
11212;BME280;5663;50.864;12.096;2023-05-10T10:19:34;98888.84;;;18.15;67.03
11212;BME280;5663;50.864;12.096;2023-05-10T10:22:03;98885.91;;;18.18;66.54
11212;BME280;5663;50.864;12.096;2023-05-10T10:24:35;98876.47;;;18.26;66.95
11212;BME280;5663;50.864;12.096;2023-05-10T10:27:15;98883.41;;;18.36;66.56
11212;BME280;5663;50.864;12.096;2023-05-10T10:29:57;98871.09;;;18.37;67.22
11212;BME280;5663;50.864;12.096;2023-05-10T10:32:38;98873.56;;;18.48;67.34
11212;BME280;5663;50.864;12.096;2023-05-10T10:35:12;98879.91;;;18.65;67.73
11212;BME280;5663;50.864;12.096;2023-05-10T10:37:44;98873.53;;;18.67;67.87
11212;BME280;5663;50.864;12.096;2023-05-10T10:40:30;98882.28;;;18.78;68.35
11212;BME280;5663;50.864;12.096;2023-05-10T10:42:58;98881.72;;;18.84;68.02
11212;BME280;5663;50.864;12.096;2023-05-10T10:46:12;98887.94;;;18.92;67.50
11212;BME280;5663;50.864;12.096;2023-05-10T10:48:47;98886.41;;;18.90;67.39
11212;BME280;5663;50.864;12.096;2023-05-10T10:51:17;98877.00;;;18.87;67.88
11212;BME280;5663;50.864;12.096;2023-05-10T10:53:48;98891.50;;;19.01;68.07
11212;BME280;5663;50.864;12.096;2023-05-10T10:56:22;98890.25;;;19.05;68.17
11212;BME280;5663;50.864;12.096;2023-05-10T10:58:51;98890.34;;;19.13;67.48
11212;BME280;5663;50.864;12.096;2023-05-10T11:01:21;98885.63;;;19.17;67.41
11212;BME280;5663;50.864;12.096;2023-05-10T11:04:18;98893.63;;;19.25;67.64
11212;BME280;5663;50.864;12.096;2023-05-10T11:06:49;98888.63;;;19.32;67.74
11212;BME280;5663;50.864;12.096;2023-05-10T11:09:18;98887.47;;;19.34;67.72
11212;BME280;5663;50.864;12.096;2023-05-10T11:11:54;98889.38;;;19.42;68.49
11212;BME280;5663;50.864;12.096;2023-05-10T11:14:22;98827.69;;;19.07;68.04
11212;BME280;5663;50.864;12.096;2023-05-10T11:16:50;98889.47;;;19.50;67.40
11212;BME280;5663;50.864;12.096;2023-05-10T11:19:19;98858.25;;;19.28;67.53
11212;BME280;5663;50.864;12.096;2023-05-10T11:21:48;98882.19;;;19.44;67.23
11212;BME280;5663;50.864;12.096;2023-05-10T11:24:18;98896.28;;;19.53;67.58
11212;BME280;5663;50.864;12.096;2023-05-10T11:26:50;98899.75;;;19.53;67.21
11212;BME280;5663;50.864;12.096;2023-05-10T11:29:23;98879.09;;;19.49;67.80
11212;BME280;5663;50.864;12.096;2023-05-10T11:31:57;98900.69;;;19.62;67.98
11212;BME280;5663;50.864;12.096;2023-05-10T13:38:47;98948.34;;;19.13;67.47
11212;BME280;5663;50.864;12.096;2023-05-10T13:41:18;98914.00;;;18.86;67.73
11212;BME280;5663;50.864;12.096;2023-05-10T13:43:48;98947.25;;;19.06;67.74
11212;BME280;5663;50.864;12.096;2023-05-10T13:46:26;98949.22;;;19.04;67.93
11212;BME280;5663;50.864;12.096;2023-05-10T14:38:10;98957.41;;;18.82;70.69
11212;BME280;5663;50.864;12.096;2023-05-10T14:43:14;98956.16;;;18.86;70.16
11212;BME280;5663;50.864;12.096;2023-05-10T15:04:40;98960.66;;;19.23;70.96
11212;BME280;5663;50.864;12.096;2023-05-10T15:07:09;98955.50;;;19.31;70.45
11212;BME280;5663;50.864;12.096;2023-05-10T15:09:41;98884.75;;;18.89;70.66
11212;BME280;5663;50.864;12.096;2023-05-10T15:12:12;98955.91;;;19.36;70.60
11212;BME280;5663;50.864;12.096;2023-05-10T15:14:40;98954.38;;;19.33;70.67
11212;BME280;5663;50.864;12.096;2023-05-10T15:17:10;98954.09;;;19.36;71.63
11212;BME280;5663;50.864;12.096;2023-05-10T15:19:42;98959.31;;;19.46;71.88
11212;BME280;5663;50.864;12.096;2023-05-10T15:22:13;98961.78;;;19.57;71.69
11212;BME280;5663;50.864;12.096;2023-05-10T15:24:51;98937.56;;;19.44;70.61
11212;BME280;5663;50.864;12.096;2023-05-10T15:27:19;98954.00;;;19.65;70.31
11212;BME280;5663;50.864;12.096;2023-05-10T15:29:47;98956.75;;;19.74;70.81
11212;BME280;5663;50.864;12.096;2023-05-10T15:32:16;98946.19;;;19.74;71.22
11212;BME280;5663;50.864;12.096;2023-05-10T15:34:45;98965.00;;;19.88;71.78
11212;BME280;5663;50.864;12.096;2023-05-10T15:37:13;98957.72;;;20.00;72.11
11212;BME280;5663;50.864;12.096;2023-05-10T15:39:41;98955.84;;;20.10;72.11
11212;BME280;5663;50.864;12.096;2023-05-10T15:42:12;98957.44;;;20.03;71.13
11212;BME280;5663;50.864;12.096;2023-05-10T15:44:41;98959.66;;;19.98;71.50
11212;BME280;5663;50.864;12.096;2023-05-10T15:47:12;98955.22;;;19.99;71.09
11212;BME280;5663;50.864;12.096;2023-05-10T15:49:42;98960.28;;;19.92;70.09
11212;BME280;5663;50.864;12.096;2023-05-10T15:52:12;98961.53;;;19.88;70.20
11212;BME280;5663;50.864;12.096;2023-05-10T15:54:41;98939.25;;;19.73;69.79
11212;BME280;5663;50.864;12.096;2023-05-10T15:57:09;98953.09;;;19.84;69.49
11212;BME280;5663;50.864;12.096;2023-05-10T15:59:37;98962.53;;;19.87;69.55
11212;BME280;5663;50.864;12.096;2023-05-10T16:02:05;98962.53;;;19.87;69.09
11212;BME280;5663;50.864;12.096;2023-05-10T16:04:34;98960.03;;;19.85;69.21
11212;BME280;5663;50.864;12.096;2023-05-10T16:07:02;98965.16;;;19.87;69.21
11212;BME280;5663;50.864;12.096;2023-05-10T16:09:36;98966.66;;;19.89;69.21
11212;BME280;5663;50.864;12.096;2023-05-10T16:12:07;98970.13;;;19.90;68.63
11212;BME280;5663;50.864;12.096;2023-05-10T16:14:36;98969.47;;;19.88;67.88
11212;BME280;5663;50.864;12.096;2023-05-10T16:17:04;98965.59;;;19.82;68.63
11212;BME280;5663;50.864;12.096;2023-05-10T16:19:34;98969.50;;;19.78;69.02
11212;BME280;5663;50.864;12.096;2023-05-10T16:22:02;98964.81;;;19.72;69.01
11212;BME280;5663;50.864;12.096;2023-05-10T16:24:34;98964.28;;;19.68;69.14
11212;BME280;5663;50.864;12.096;2023-05-10T16:27:02;98963.44;;;19.68;69.50
11212;BME280;5663;50.864;12.096;2023-05-10T16:29:30;98965.94;;;19.69;69.45
11212;BME280;5663;50.864;12.096;2023-05-10T16:31:59;98969.25;;;19.72;69.75
11212;BME280;5663;50.864;12.096;2023-05-10T16:34:37;98974.94;;;19.77;69.72
11212;BME280;5663;50.864;12.096;2023-05-10T16:37:07;98979.28;;;19.68;69.73
11212;BME280;5663;50.864;12.096;2023-05-10T16:39:40;98979.03;;;19.61;70.15
11212;BME280;5663;50.864;12.096;2023-05-10T16:42:08;98970.41;;;19.59;70.34
11212;BME280;5663;50.864;12.096;2023-05-10T16:44:36;98981.66;;;19.61;70.37
11212;BME280;5663;50.864;12.096;2023-05-10T16:47:06;98981.78;;;19.60;70.05
11212;BME280;5663;50.864;12.096;2023-05-10T16:49:35;98984.53;;;19.58;70.14
11212;BME280;5663;50.864;12.096;2023-05-10T16:52:05;98984.84;;;19.55;69.26
11212;BME280;5663;50.864;12.096;2023-05-10T16:54:33;98976.84;;;19.47;69.88
11212;BME280;5663;50.864;12.096;2023-05-10T16:57:03;98984.06;;;19.45;70.08
11212;BME280;5663;50.864;12.096;2023-05-10T16:59:31;98988.38;;;19.36;70.23
11212;BME280;5663;50.864;12.096;2023-05-10T17:02:03;98989.66;;;19.32;70.30
11212;BME280;5663;50.864;12.096;2023-05-10T17:04:40;98999.66;;;19.29;70.46
11212;BME280;5663;50.864;12.096;2023-05-10T17:07:18;98996.31;;;19.27;70.73
11212;BME280;5663;50.864;12.096;2023-05-10T17:09:48;98996.75;;;19.22;70.52
11212;BME280;5663;50.864;12.096;2023-05-10T17:12:24;99000.09;;;19.14;70.00
11212;BME280;5663;50.864;12.096;2023-05-10T17:14:56;99004.13;;;19.09;69.87
11212;BME280;5663;50.864;12.096;2023-05-10T17:17:27;98971.97;;;18.86;70.33
11212;BME280;5663;50.864;12.096;2023-05-10T17:19:58;99005.81;;;19.00;70.10
11212;BME280;5663;50.864;12.096;2023-05-10T17:22:27;98993.19;;;18.94;69.82
11212;BME280;5663;50.864;12.096;2023-05-10T17:24:57;99008.59;;;18.89;70.00
11212;BME280;5663;50.864;12.096;2023-05-10T17:27:29;99008.88;;;18.86;69.96
11212;BME280;5663;50.864;12.096;2023-05-10T17:29:58;99016.38;;;18.81;70.18
11212;BME280;5663;50.864;12.096;2023-05-10T17:32:25;99016.63;;;18.78;70.32
11212;BME280;5663;50.864;12.096;2023-05-10T17:34:57;99018.72;;;18.74;70.16
11212;BME280;5663;50.864;12.096;2023-05-10T17:37:28;99022.00;;;18.66;70.52
11212;BME280;5663;50.864;12.096;2023-05-10T17:39:58;99018.81;;;18.63;70.27
11212;BME280;5663;50.864;12.096;2023-05-10T17:42:28;99014.94;;;18.57;70.50
11212;BME280;5663;50.864;12.096;2023-05-10T17:44:57;99021.28;;;18.55;70.54
11212;BME280;5663;50.864;12.096;2023-05-10T17:47:26;99031.16;;;18.53;70.64
11212;BME280;5663;50.864;12.096;2023-05-10T17:49:54;99030.75;;;18.48;70.70
11212;BME280;5663;50.864;12.096;2023-05-10T17:52:23;99030.84;;;18.46;70.82
11212;BME280;5663;50.864;12.096;2023-05-10T17:54:53;99031.13;;;18.43;70.63
11212;BME280;5663;50.864;12.096;2023-05-10T17:57:30;99006.31;;;18.26;70.57
11212;BME280;5663;50.864;12.096;2023-05-10T18:00:03;99026.69;;;18.34;70.73
11212;BME280;5663;50.864;12.096;2023-05-10T18:02:39;99027.94;;;18.30;71.04
11212;BME280;5663;50.864;12.096;2023-05-10T18:05:08;99028.75;;;18.20;70.71
11212;BME280;5663;50.864;12.096;2023-05-10T18:07:38;99029.00;;;18.17;70.98
11212;BME280;5663;50.864;12.096;2023-05-10T18:10:09;99041.75;;;18.12;70.87
11212;BME280;5663;50.864;12.096;2023-05-10T18:12:40;99034.25;;;18.08;70.95
11212;BME280;5663;50.864;12.096;2023-05-10T18:15:10;99032.00;;;18.03;70.66
11212;BME280;5663;50.864;12.096;2023-05-10T18:17:40;99037.81;;;17.97;70.71
11212;BME280;5663;50.864;12.096;2023-05-10T18:20:11;99031.16;;;17.93;70.78
11212;BME280;5663;50.864;12.096;2023-05-10T18:22:39;99037.50;;;17.90;70.99
11212;BME280;5663;50.864;12.096;2023-05-10T18:25:08;99040.53;;;17.86;71.05
11212;BME280;5663;50.864;12.096;2023-05-10T18:27:49;99040.09;;;17.81;71.28
11212;BME280;5663;50.864;12.096;2023-05-10T18:30:17;99043.97;;;17.77;71.14
11212;BME280;5663;50.864;12.096;2023-05-10T18:32:47;99049.44;;;17.73;71.43
11212;BME280;5663;50.864;12.096;2023-05-10T18:35:16;99040.16;;;17.69;71.52
11212;BME280;5663;50.864;12.096;2023-05-10T18:37:45;99034.28;;;17.56;71.71
11212;BME280;5663;50.864;12.096;2023-05-10T18:40:16;99041.22;;;17.57;71.94
11212;BME280;5663;50.864;12.096;2023-05-10T18:42:44;99045.91;;;17.54;71.92
11212;BME280;5663;50.864;12.096;2023-05-10T18:45:18;99044.63;;;17.48;72.20
11212;BME280;5663;50.864;12.096;2023-05-10T18:47:48;99042.50;;;17.42;72.37
11212;BME280;5663;50.864;12.096;2023-05-10T18:50:17;99050.78;;;17.37;72.47
11212;BME280;5663;50.864;12.096;2023-05-10T18:52:48;99051.19;;;17.33;72.70
11212;BME280;5663;50.864;12.096;2023-05-10T18:55:19;99061.25;;;17.28;72.91
11212;BME280;5663;50.864;12.096;2023-05-10T18:57:47;99059.84;;;17.23;72.99
11212;BME280;5663;50.864;12.096;2023-05-10T19:00:16;99061.75;;;17.21;73.23
11212;BME280;5663;50.864;12.096;2023-05-10T19:02:46;99053.66;;;17.13;73.24
11212;BME280;5663;50.864;12.096;2023-05-10T19:05:14;99066.09;;;17.11;73.42
11212;BME280;5663;50.864;12.096;2023-05-10T19:07:44;99066.38;;;17.08;73.57
11212;BME280;5663;50.864;12.096;2023-05-10T19:10:11;99072.69;;;17.06;73.90
11212;BME280;5663;50.864;12.096;2023-05-10T19:12:41;99077.38;;;17.02;74.12
11212;BME280;5663;50.864;12.096;2023-05-10T19:15:09;99082.03;;;16.98;74.35
11212;BME280;5663;50.864;12.096;2023-05-10T19:17:40;99082.28;;;16.95;74.35
11212;BME280;5663;50.864;12.096;2023-05-10T19:20:10;99077.16;;;16.94;74.13
11212;BME280;5663;50.864;12.096;2023-05-10T19:22:40;99086.00;;;16.93;74.26
11212;BME280;5663;50.864;12.096;2023-05-10T19:25:09;99078.13;;;16.93;74.38
11212;BME280;5663;50.864;12.096;2023-05-10T19:27:38;99081.00;;;16.90;74.39
11212;BME280;5663;50.864;12.096;2023-05-10T19:30:08;99079.44;;;16.87;74.50
11212;BME280;5663;50.864;12.096;2023-05-10T19:32:37;99088.28;;;16.86;74.72
11212;BME280;5663;50.864;12.096;2023-05-10T19:35:07;99089.41;;;16.84;74.76
11212;BME280;5663;50.864;12.096;2023-05-10T19:37:37;99083.41;;;16.82;74.82
11212;BME280;5663;50.864;12.096;2023-05-10T19:40:06;99085.47;;;16.78;75.06
11212;BME280;5663;50.864;12.096;2023-05-10T19:42:36;99080.59;;;16.73;75.02
11212;BME280;5663;50.864;12.096;2023-05-10T19:45:08;99089.41;;;16.72;75.23
11212;BME280;5663;50.864;12.096;2023-05-10T19:47:37;99081.53;;;16.72;74.92
11212;BME280;5663;50.864;12.096;2023-05-10T19:50:07;99085.06;;;16.71;75.05
11212;BME280;5663;50.864;12.096;2023-05-10T19:52:35;99090.34;;;16.71;75.00
11212;BME280;5663;50.864;12.096;2023-05-10T19:55:05;99070.44;;;16.58;75.04
11212;BME280;5663;50.864;12.096;2023-05-10T19:57:34;99087.00;;;16.69;75.12
11212;BME280;5663;50.864;12.096;2023-05-10T20:00:02;99074.03;;;16.57;75.19
11212;BME280;5663;50.864;12.096;2023-05-10T20:02:32;99088.91;;;16.67;75.18
11212;BME280;5663;50.864;12.096;2023-05-10T20:05:01;99089.19;;;16.64;75.46
11212;BME280;5663;50.864;12.096;2023-05-10T20:07:30;99089.41;;;16.61;75.65